createdAt,value
2019-04-22T00:01:56.920Z,97933.70
2019-04-22T00:04:42.061Z,97938.16
2019-04-22T00:07:22.777Z,97933.20
2019-04-22T00:10:03.092Z,97932.47
2019-04-22T00:12:27.937Z,97937.97
2019-04-22T00:14:52.563Z,97928.54
2019-04-22T00:17:31.709Z,97928.02
2019-04-22T00:22:29.218Z,97926.65
2019-04-22T00:25:03.280Z,97921.59
2019-04-22T00:27:33.918Z,97923.92
2019-04-22T00:30:07.893Z,97931.41
2019-04-22T00:32:59.341Z,97918.59
2019-04-22T00:35:29.354Z,97916.95
2019-04-22T00:38:05.699Z,97916.22
2019-04-22T00:40:33.935Z,97914.52
2019-04-22T00:43:06.786Z,97919.69
2019-04-22T00:45:41.888Z,97911.20
2019-04-22T00:48:17.743Z,97911.77
2019-04-22T00:50:46.713Z,97910.73
2019-04-22T00:53:20.458Z,97912.36
2019-04-22T00:56:17.189Z,97914.36
2019-04-22T01:03:50.516Z,97909.38
2019-04-22T01:06:24.180Z,97905.14
2019-04-22T01:08:58.933Z,97912.72
2019-04-22T01:11:22.772Z,97909.67
2019-04-22T01:13:50.181Z,97898.16
2019-04-22T01:16:22.626Z,97897.00
2019-04-22T01:18:55.156Z,97892.89
2019-04-22T01:21:28.853Z,97889.73
2019-04-22T01:23:55.117Z,97892.68
2019-04-22T01:26:26.882Z,97887.11
2019-04-22T01:28:59.258Z,97894.55
2019-04-22T01:31:20.312Z,97886.47
2019-04-22T01:34:00.483Z,97885.31
2019-04-22T01:36:35.615Z,97890.48
2019-04-22T01:39:09.187Z,97886.75
2019-04-22T01:47:04.450Z,97881.71
2019-04-22T01:49:21.377Z,97882.50
2019-04-22T01:54:29.820Z,97879.39
2019-04-22T01:56:53.197Z,97873.70
2019-04-22T01:59:15.806Z,97874.77
2019-04-22T02:02:00.574Z,97867.89
2019-04-22T02:04:32.455Z,97866.88
2019-04-22T02:07:00.128Z,97855.37
2019-04-22T02:09:31.647Z,97857.67
2019-04-22T02:12:00.219Z,97858.89
2019-04-22T02:14:35.715Z,97860.27
2019-04-22T02:17:04.277Z,97853.21
2019-04-22T02:22:00.908Z,97847.88
2019-04-22T02:24:42.104Z,97852.84
2019-04-22T02:27:13.986Z,97843.71
2019-04-22T02:32:24.312Z,97840.83
2019-04-22T02:34:50.315Z,97839.32
2019-04-22T02:37:18.758Z,97838.13
2019-04-22T02:39:52.849Z,97842.73
2019-04-22T02:44:48.602Z,97835.86
2019-04-22T02:49:47.545Z,97823.58
2019-04-22T02:52:27.782Z,97825.45
2019-04-22T02:54:55.160Z,97824.04
2019-04-22T03:02:53.956Z,97817.50
2019-04-22T03:05:07.360Z,97817.27
2019-04-22T03:07:50.753Z,97814.25
2019-04-22T03:12:29.114Z,97807.48
2019-04-22T03:15:06.234Z,97808.08
2019-04-22T03:20:04.287Z,97800.75
2019-04-22T03:22:34.479Z,97801.09
2019-04-22T03:27:37.262Z,97794.91
2019-04-22T03:45:26.599Z,97783.47
2019-04-22T03:48:04.673Z,97781.52
2019-04-22T03:57:56.081Z,97766.23
2019-04-22T04:00:39.346Z,97778.25
2019-04-22T04:05:37.527Z,97773.94
2019-04-22T04:08:12.669Z,97769.33
2019-04-22T04:13:08.278Z,97771.28
2019-04-22T04:15:32.938Z,97761.59
2019-04-22T04:17:59.453Z,97769.11
2019-04-22T04:20:39.234Z,97760.16
2019-04-22T04:30:42.320Z,97755.94
2019-04-22T04:33:18.078Z,97753.99
2019-04-22T04:38:12.488Z,97751.86
2019-04-22T04:43:18.845Z,97749.73
2019-04-22T04:48:21.133Z,97742.66
2019-04-22T04:56:02.741Z,97745.24
2019-04-22T04:58:46.561Z,97748.48
2019-04-22T05:03:43.510Z,97749.33
2019-04-22T05:06:05.964Z,97747.93
2019-04-22T05:08:52.820Z,97752.39
2019-04-22T05:13:39.437Z,97748.25
2019-04-22T05:16:17.190Z,97750.62
2019-04-22T05:18:38.026Z,97752.59
2019-04-22T05:21:14.677Z,97750.30
2019-04-22T05:23:37.431Z,97750.42
2019-04-22T05:26:05.866Z,97749.53
2019-04-22T05:28:38.129Z,97754.70
2019-04-22T05:31:09.787Z,97749.66
2019-04-22T05:33:36.074Z,97747.08
2019-04-22T05:36:07.427Z,97744.83
2019-04-22T05:38:49.301Z,97751.76
2019-04-22T05:41:10.202Z,97751.66
2019-04-22T05:43:40.646Z,97756.08
2019-04-22T05:46:15.744Z,97748.34
2019-04-22T05:48:54.160Z,97749.13
2019-04-22T05:51:18.046Z,97754.10
2019-04-22T05:53:57.449Z,97746.48
2019-04-22T05:56:27.761Z,97749.33
2019-04-22T05:58:58.279Z,97754.63
2019-04-22T06:03:58.734Z,97750.22
2019-04-22T06:06:22.556Z,97746.88
2019-04-22T06:11:29.601Z,97742.83
2019-04-22T06:14:00.913Z,97742.67
2019-04-22T06:16:43.118Z,97734.53
2019-04-22T06:19:07.599Z,97726.58
2019-04-22T06:21:40.230Z,97721.02
2019-04-22T06:24:18.992Z,97727.95
2019-04-22T06:27:04.523Z,97731.05
2019-04-22T06:29:16.583Z,97732.09
2019-04-22T06:32:03.642Z,97724.84
2019-04-22T06:34:19.145Z,97726.25
2019-04-22T06:39:25.883Z,97709.97
2019-04-22T06:46:52.414Z,97708.50
2019-04-22T06:49:26.818Z,97708.42
2019-04-22T06:51:53.804Z,97704.34
2019-04-22T06:54:28.262Z,97704.56
2019-04-22T06:56:57.816Z,97700.84
2019-04-22T06:59:33.078Z,97702.31
2019-04-22T07:02:02.201Z,97709.83
2019-04-22T07:04:29.580Z,97699.62
2019-04-22T07:07:04.588Z,97688.64
2019-04-22T07:09:42.830Z,97688.14
2019-04-22T07:12:06.441Z,97686.64
2019-04-22T07:14:37.111Z,97687.12
2019-04-22T07:17:07.371Z,97683.15
2019-04-22T07:19:40.607Z,97686.16
2019-04-22T07:22:11.083Z,97693.54
2019-04-22T07:24:47.663Z,97687.89
2019-04-22T07:29:49.251Z,97686.25
2019-04-22T07:32:17.217Z,97681.89
2019-04-22T07:34:48.953Z,97673.26
2019-04-22T07:37:28.372Z,97687.52
2019-04-22T07:42:19.146Z,97677.27
2019-04-22T07:44:51.066Z,97671.93
2019-04-22T07:47:25.720Z,97669.02
2019-04-22T07:49:52.226Z,97668.13
2019-04-22T07:52:22.937Z,97655.45
2019-04-22T07:54:52.426Z,97657.69
2019-04-22T07:57:27.951Z,97654.98
2019-04-22T08:02:34.109Z,97646.86
2019-04-22T08:05:07.473Z,97649.34
2019-04-22T08:07:29.957Z,97641.34
2019-04-22T08:10:09.162Z,97637.13
2019-04-22T08:12:34.951Z,97643.26
2019-04-22T08:14:58.411Z,97635.95
2019-04-22T08:17:51.824Z,97630.45
2019-04-22T08:20:10.807Z,97630.52
2019-04-22T08:22:33.983Z,97626.73
2019-04-22T08:25:06.312Z,97611.92
2019-04-22T08:27:46.835Z,97614.17
2019-04-22T08:30:14.503Z,97614.62
2019-04-22T08:35:27.413Z,97607.50
2019-04-22T08:40:20.850Z,97597.91
2019-04-22T08:45:18.250Z,97593.33
2019-04-22T08:47:47.952Z,97588.19
2019-04-22T08:50:21.700Z,97585.97
2019-04-22T08:52:58.739Z,97583.82
2019-04-22T08:55:26.243Z,97569.25
2019-04-22T08:58:16.735Z,97570.25
2019-04-22T09:00:34.434Z,97559.20
2019-04-22T09:03:02.232Z,97563.71
2019-04-22T09:05:42.441Z,97561.53
2019-04-22T09:08:05.895Z,97558.79
2019-04-22T09:10:32.851Z,97556.05
2019-04-22T09:13:16.509Z,97546.75
2019-04-22T09:15:35.167Z,97555.77
2019-04-22T09:18:08.409Z,97544.00
2019-04-22T09:20:45.121Z,97535.44
2019-04-22T09:23:07.670Z,97540.17
2019-04-22T09:25:43.628Z,97545.03
2019-04-22T09:28:33.236Z,97538.81
2019-04-22T09:30:52.347Z,97531.97
2019-04-22T09:33:21.083Z,97527.72
2019-04-22T09:38:31.466Z,97521.22
2019-04-22T09:40:47.018Z,97515.67
2019-04-22T09:43:24.398Z,97520.59
2019-04-22T09:45:48.313Z,97518.32
2019-04-22T09:48:23.398Z,97517.48
2019-04-22T09:50:54.065Z,97500.55
2019-04-22T09:53:23.957Z,97503.42
2019-04-22T09:56:01.105Z,97502.16
2019-04-22T09:58:36.183Z,97489.20
2019-04-22T10:03:51.397Z,97488.22
2019-04-22T10:09:02.266Z,97489.22
2019-04-22T10:11:31.568Z,97470.97
2019-04-22T10:13:53.753Z,97480.66
2019-04-22T10:18:59.464Z,97470.23
2019-04-22T10:21:38.812Z,97466.55
2019-04-22T10:23:59.872Z,97468.34
2019-04-22T10:26:34.556Z,97460.87
2019-04-22T10:33:53.544Z,97452.33
2019-04-22T10:36:09.705Z,97441.05
2019-04-22T10:38:40.203Z,97443.45
2019-04-22T10:41:10.427Z,97440.52
2019-04-22T10:43:41.103Z,97440.28
2019-04-22T10:46:10.658Z,97430.65
2019-04-22T10:48:40.247Z,97429.45
2019-04-22T10:51:10.671Z,97418.19
2019-04-22T10:53:40.007Z,97417.97
2019-04-22T10:56:09.431Z,97409.81
2019-04-22T10:58:38.722Z,97404.31
2019-04-22T11:01:09.452Z,97405.48
2019-04-22T11:03:39.595Z,97395.66
2019-04-22T11:06:09.672Z,97408.35
2019-04-22T11:08:46.575Z,97392.24
2019-04-22T11:11:26.017Z,97396.28
2019-04-22T11:13:42.321Z,97377.48
2019-04-22T11:16:11.918Z,97388.81
2019-04-22T11:18:41.341Z,97398.06
2019-04-22T11:21:11.604Z,97394.02
2019-04-22T11:23:41.009Z,97383.70
2019-04-22T11:26:10.279Z,97376.97
2019-04-22T11:28:39.597Z,97380.45
2019-04-22T11:31:10.366Z,97377.99
2019-04-22T11:33:40.637Z,97371.90
2019-04-22T11:36:10.243Z,97357.88
2019-04-22T11:38:48.679Z,97362.28
2019-04-22T11:41:12.678Z,97366.42
2019-04-22T11:43:43.045Z,97357.04
2019-04-22T11:46:13.408Z,97347.67
2019-04-22T11:48:45.605Z,97343.73
2019-04-22T11:51:15.961Z,97342.79
2019-04-22T11:53:45.273Z,97338.86
2019-04-22T11:56:14.581Z,97340.16
2019-04-22T11:58:44.556Z,97332.68
2019-04-22T12:01:14.908Z,97330.22
2019-04-22T12:03:46.191Z,97317.13
2019-04-22T12:06:15.924Z,97337.75
2019-04-22T12:08:45.918Z,97323.13
2019-04-22T12:11:16.643Z,97315.10
2019-04-22T12:13:46.430Z,97313.98
2019-04-22T12:16:17.016Z,97319.64
2019-04-22T12:18:47.254Z,97316.06
2019-04-22T12:21:17.105Z,97305.06
2019-04-22T12:23:47.284Z,97295.65
2019-04-22T12:26:20.583Z,97293.08
2019-04-22T12:28:49.024Z,97287.03
2019-04-22T12:31:19.598Z,97294.81
2019-04-22T12:33:59.326Z,97299.02
2019-04-22T12:36:28.835Z,97283.73
2019-04-22T12:38:59.645Z,97278.76
2019-04-22T12:41:31.105Z,97283.41
2019-04-22T12:44:03.316Z,97271.50
2019-04-22T12:46:34.274Z,97264.35
2019-04-22T12:49:04.984Z,97264.95
2019-04-22T12:51:36.905Z,97252.91
2019-04-22T12:54:08.839Z,97252.52
2019-04-22T12:56:41.886Z,97247.33
2019-04-22T12:59:13.916Z,97247.87
2019-04-22T13:01:46.849Z,97246.52
2019-04-22T13:04:21.201Z,97240.63
2019-04-22T13:06:53.427Z,97233.07
2019-04-22T13:09:25.404Z,97237.44
2019-04-22T13:11:57.227Z,97225.78
2019-04-22T13:14:28.415Z,97230.15
2019-04-22T13:17:01.878Z,97226.59
2019-04-22T13:19:36.000Z,97212.99
2019-04-22T13:22:10.202Z,97218.95
2019-04-22T13:24:41.805Z,97210.52
2019-04-22T13:27:15.035Z,97214.90
2019-04-22T13:29:46.860Z,97201.95
2019-04-22T13:32:18.706Z,97202.63
2019-04-22T13:34:55.419Z,97193.09
2019-04-22T13:37:25.268Z,97185.86
2019-04-22T13:39:57.085Z,97184.70
2019-04-22T13:42:31.445Z,97192.11
2019-04-22T13:45:04.118Z,97179.86
2019-04-22T13:47:56.243Z,97173.22
2019-04-22T13:50:43.650Z,97166.19
2019-04-22T13:53:26.223Z,97173.56
2019-04-22T13:55:46.765Z,97167.76
2019-04-22T13:58:14.682Z,97168.92
2019-04-22T14:00:34.412Z,97172.69
2019-04-22T14:03:29.055Z,97156.19
2019-04-22T14:06:00.974Z,97163.58
2019-04-22T14:08:33.196Z,97149.78
2019-04-22T14:11:16.813Z,97144.82
2019-04-22T14:13:35.613Z,97142.77
2019-04-22T14:16:06.712Z,97136.67
2019-04-22T14:18:39.033Z,97142.86
2019-04-22T14:21:09.113Z,97143.52
2019-04-22T14:23:38.596Z,97140.95
2019-04-22T14:26:09.117Z,97139.50
2019-04-22T14:28:39.527Z,97125.29
2019-04-22T14:31:10.571Z,97124.30
2019-04-22T14:33:42.910Z,97125.53
2019-04-22T14:36:11.680Z,97116.15
2019-04-22T14:38:52.326Z,97105.52
2019-04-22T14:41:40.686Z,97106.45
2019-04-22T14:46:53.438Z,97090.84
2019-04-22T14:49:21.456Z,97097.32
2019-04-22T14:51:48.810Z,97088.38
2019-04-22T14:54:13.883Z,97090.06
2019-04-22T14:56:28.662Z,97077.59
2019-04-22T14:58:58.827Z,97083.75
2019-04-22T15:01:30.782Z,97081.30
2019-04-22T15:04:00.823Z,97071.69
2019-04-22T15:06:31.724Z,97085.38
2019-04-22T15:09:01.855Z,97083.14
2019-04-22T15:11:43.857Z,97063.24
2019-04-22T15:14:03.281Z,97064.98
2019-04-22T15:16:52.921Z,97064.10
2019-04-22T15:19:45.457Z,97066.05
2019-04-22T15:22:14.940Z,97056.47
2019-04-22T15:24:46.967Z,97058.42
2019-04-22T15:27:16.381Z,97063.20
2019-04-22T15:29:47.348Z,97058.80
2019-04-22T15:32:17.574Z,97045.98
2019-04-22T15:34:47.049Z,97061.89
2019-04-22T15:37:16.399Z,97056.94
2019-04-22T15:39:45.807Z,97055.11
2019-04-22T15:42:24.011Z,97054.27
2019-04-22T15:44:49.126Z,97050.72
2019-04-22T15:47:18.894Z,97045.28
2019-04-22T15:49:48.169Z,97043.53
2019-04-22T15:52:18.815Z,97035.80
2019-04-22T15:54:51.700Z,97044.84
2019-04-22T15:57:20.511Z,97041.48
2019-04-22T16:00:07.876Z,97034.36
2019-04-22T16:02:23.333Z,97037.34
2019-04-22T16:04:52.842Z,97043.89
2019-04-22T16:07:25.283Z,97040.31
2019-04-22T16:09:53.972Z,97041.72
2019-04-22T16:12:32.117Z,97027.64
2019-04-22T16:14:57.058Z,97035.14
2019-04-22T16:17:26.465Z,97038.11
2019-04-22T16:19:57.085Z,97038.25
2019-04-22T16:22:28.831Z,97047.16
2019-04-22T16:25:19.376Z,97027.23
2019-04-22T16:27:50.161Z,97028.66
2019-04-22T16:30:19.595Z,97030.66
2019-04-22T16:32:49.454Z,97026.82
2019-04-22T16:35:18.829Z,97029.72
2019-04-22T16:37:48.609Z,97028.03
2019-04-22T16:40:18.721Z,97017.98
2019-04-22T16:42:56.340Z,97015.95
2019-04-22T16:45:19.867Z,97012.69
2019-04-22T16:47:49.469Z,97012.02
2019-04-22T16:50:19.052Z,97007.30
2019-04-22T16:52:48.354Z,97014.38
2019-04-22T16:55:19.095Z,97012.52
2019-04-22T16:57:48.384Z,97002.70
2019-04-22T17:00:18.661Z,97005.84
2019-04-22T17:03:06.876Z,97010.12
2019-04-22T17:06:01.438Z,97003.67
2019-04-22T17:08:30.754Z,97005.13
2019-04-22T17:11:00.027Z,97001.84
2019-04-22T17:13:32.756Z,96991.19
2019-04-22T17:16:02.208Z,97003.32
2019-04-22T17:18:31.396Z,97002.98
2019-04-22T17:21:03.697Z,97012.37
2019-04-22T17:23:31.963Z,96997.31
2019-04-22T17:26:02.761Z,97011.19
2019-04-22T17:28:33.423Z,97012.31
2019-04-22T17:31:04.541Z,97014.41
2019-04-22T17:33:37.356Z,97011.63
2019-04-22T17:36:09.310Z,97006.25
2019-04-22T17:38:48.603Z,97014.61
2019-04-22T17:41:24.205Z,97015.18
2019-04-22T17:44:28.750Z,97019.95
2019-04-22T17:46:58.803Z,97015.53
2019-04-22T17:49:50.973Z,97015.70
2019-04-22T17:52:21.038Z,97019.95
2019-04-22T17:55:05.036Z,97023.49
2019-04-22T17:57:29.429Z,97021.67
2019-04-22T18:00:00.023Z,97021.45
2019-04-22T18:02:26.738Z,97021.98
2019-04-22T18:04:55.042Z,97023.41
2019-04-22T18:07:38.520Z,97036.31
2019-04-22T18:12:50.206Z,97030.05
2019-04-22T18:15:17.855Z,97026.13
2019-04-22T18:18:03.743Z,97026.13
2019-04-22T18:20:27.186Z,97023.52
2019-04-22T18:22:54.654Z,97036.26
2019-04-22T18:25:34.147Z,97038.84
2019-04-22T18:28:11.615Z,97045.58
2019-04-22T18:30:34.719Z,97039.70
2019-04-22T18:33:13.192Z,97052.80
2019-04-22T18:35:44.330Z,97045.86
2019-04-22T18:38:28.009Z,97052.23
2019-04-22T18:40:53.674Z,97058.83
2019-04-22T18:43:28.984Z,97047.83
2019-04-22T18:46:02.024Z,97059.89
2019-04-22T18:48:27.217Z,97054.00
2019-04-22T18:51:11.951Z,97058.46
2019-04-22T18:54:01.961Z,97066.55
2019-04-22T18:56:45.203Z,97067.39
2019-04-22T18:59:07.677Z,97073.19
2019-04-22T19:01:28.150Z,97050.38
2019-04-22T19:04:10.612Z,97068.09
2019-04-22T19:06:57.022Z,97066.11
2019-04-22T19:09:35.006Z,97063.95
2019-04-22T19:12:15.264Z,97067.57
2019-04-22T19:14:45.341Z,97070.56
2019-04-22T19:17:27.234Z,97074.27
2019-04-22T19:19:49.782Z,97069.72
2019-04-22T19:22:26.549Z,97077.45
2019-04-22T19:24:47.670Z,97072.04
2019-04-22T19:27:24.813Z,97069.83
2019-04-22T19:30:07.385Z,97064.83
2019-04-22T19:32:35.402Z,97071.36
2019-04-22T19:34:57.435Z,97066.33
2019-04-22T19:37:32.709Z,97063.39
2019-04-22T19:42:49.446Z,97059.56
2019-04-22T19:45:10.666Z,97063.93
2019-04-22T19:47:47.819Z,97065.28
2019-04-22T19:50:19.168Z,97055.12
2019-04-22T19:52:44.594Z,97070.67
2019-04-22T19:55:21.941Z,97065.80
2019-04-22T19:57:44.698Z,97057.83
2019-04-22T20:00:19.086Z,97072.88
2019-04-22T20:03:13.308Z,97062.78
2019-04-22T20:05:50.861Z,97059.43
2019-04-22T20:08:19.925Z,97066.34
2019-04-22T20:10:46.087Z,97061.01
2019-04-22T20:13:28.830Z,97055.69
2019-04-22T20:15:43.395Z,97060.63
2019-04-22T20:18:34.390Z,97060.86
2019-04-22T20:20:58.515Z,97058.20
2019-04-22T20:23:18.194Z,97060.11
2019-04-22T20:25:50.978Z,97055.04
2019-04-22T20:28:33.068Z,97057.98
2019-04-22T20:30:55.345Z,97056.16
2019-04-22T20:33:35.354Z,97055.94
2019-04-22T20:36:03.516Z,97046.80
2019-04-22T20:38:32.652Z,97045.09
2019-04-22T20:41:02.417Z,97050.72
2019-04-22T20:43:43.206Z,97054.47
2019-04-22T20:46:11.409Z,97046.41
2019-04-22T20:48:43.892Z,97042.09
2019-04-22T20:51:14.022Z,97043.23
2019-04-22T20:53:47.969Z,97036.97
2019-04-22T20:56:14.476Z,97037.77
2019-04-22T20:58:46.617Z,97033.60
2019-04-22T21:01:11.604Z,97046.14
2019-04-22T21:03:39.238Z,97035.83
2019-04-22T21:06:22.846Z,97034.84
2019-04-22T21:08:57.437Z,97037.59
2019-04-22T21:11:28.089Z,97035.57
2019-04-22T21:13:56.055Z,97029.89
2019-04-22T21:16:32.834Z,97022.44
2019-04-22T21:18:56.579Z,97028.41
2019-04-22T21:21:32.025Z,97029.38
2019-04-22T21:23:57.249Z,97017.88
2019-04-22T21:26:34.483Z,97016.36
2019-04-22T21:29:03.314Z,97015.36
2019-04-22T21:31:43.858Z,97014.28
2019-04-22T21:34:08.015Z,97009.62
2019-04-22T21:36:46.182Z,97015.56
2019-04-22T21:39:08.277Z,97009.48
2019-04-22T21:41:44.709Z,96998.12
2019-04-22T21:44:14.037Z,96999.50
2019-04-22T21:46:51.209Z,96993.34
2019-04-22T21:49:23.175Z,96993.23
2019-04-22T21:51:49.570Z,96984.20
2019-04-22T21:54:21.874Z,96977.96
2019-04-22T21:57:19.347Z,96986.23
2019-04-22T21:59:47.140Z,96978.20
2019-04-22T22:02:27.100Z,96974.73
2019-04-22T22:04:47.317Z,96972.33
2019-04-22T22:07:13.220Z,96970.22
2019-04-22T22:09:53.944Z,96961.70
2019-04-22T22:12:29.129Z,96963.08
2019-04-22T22:15:00.455Z,96963.45
2019-04-22T22:17:28.298Z,96964.84
2019-04-22T22:19:57.825Z,96955.86
2019-04-22T22:25:04.676Z,96954.11
2019-04-22T22:27:37.594Z,96947.83
2019-04-22T22:30:18.735Z,96955.02
2019-04-22T22:32:38.976Z,96943.34
2019-04-22T22:35:10.111Z,96946.66
2019-04-22T22:37:28.201Z,96938.64
2019-04-22T22:39:57.773Z,96938.38
2019-04-22T22:42:30.158Z,96935.89
2019-04-22T22:45:02.323Z,96933.88
2019-04-22T22:47:39.260Z,96926.42
2019-04-22T22:50:12.547Z,96930.86
2019-04-22T22:53:02.323Z,96916.37
2019-04-22T22:55:17.977Z,96915.33
2019-04-22T22:57:46.482Z,96908.91
2019-04-22T23:00:18.451Z,96911.67
2019-04-22T23:03:03.718Z,96900.84
2019-04-22T23:05:28.711Z,96905.00
2019-04-22T23:07:54.083Z,96894.23
2019-04-22T23:10:25.280Z,96890.36
2019-04-22T23:12:56.225Z,96890.31
2019-04-22T23:15:21.762Z,96891.34
2019-04-22T23:17:38.954Z,96885.61
2019-04-22T23:20:07.229Z,96886.61
2019-04-22T23:23:06.206Z,96879.55
2019-04-22T23:25:50.389Z,96872.16
2019-04-22T23:28:10.122Z,96869.43
2019-04-22T23:30:56.879Z,96874.12
2019-04-22T23:33:40.526Z,96868.23
2019-04-22T23:36:18.584Z,96865.50
2019-04-22T23:38:59.327Z,96866.72
2019-04-22T23:44:10.133Z,96862.81
2019-04-22T23:46:47.059Z,96864.92
2019-04-22T23:49:22.281Z,96858.52
2019-04-22T23:52:02.399Z,96861.58
2019-04-22T23:54:32.602Z,96848.71
2019-04-22T23:56:51.957Z,96846.97
2019-04-22T23:59:44.926Z,96853.23
